• Join FlightAware (Why Join?)
  • Login
  • US Flag 
04:22AM EDT


 

Airport Tracker/Info


-or-


 

Live Flight TrackerFlight Track Log ✈ N1926A ✈ 13-May-2013 ✈ 41A - KLOU

Flight Track Log - Related Links

Times and Time Zones

All times are in EDT time to prevent confusion due to time zone crossing. See the N1926A flight status page for this flight to view local times or setup timezone preferences in your user account.

Time Position Orientation Groundspeed Altitude Reporting Facility
EDT Latitude Longitude Course Direction KTS MPH feet Rate Location/Type
01:40PM 32.6158 -85.8858 North 153 176 25,000  Level Atlanta Center
01:41PM 32.6514 -85.8767 12° North 153 176 8,200 -7,740 Descending Atlanta Center
01:42PM 32.6911 -85.8603 19° North 142 163 9,600 1,440 Climbing Atlanta Center
01:43PM 32.7394 -85.8539 North 153 176 11,100 1,440 Climbing Atlanta Center
01:44PM 32.7917 -85.8500 North 171 197 12,500 1,500 Climbing Atlanta Center
01:45PM 32.8530 -85.8500 North  Level FlightAware Approximate
01:45PM 32.8458 -85.8461 North 183 211 14,100  Level Atlanta Center
01:46PM 32.8961 -85.8397 North 183 211 15,800 1,440 Climbing Atlanta Center
01:47PM 32.9461 -85.8408 359° North 178 205 17,000 1,080 Climbing Atlanta Center
01:48PM 32.9942 -85.8394 North 178 205 18,000 1,080 Climbing Atlanta Center
01:49PM 33.0464 -85.8381 North 178 205 19,200 1,080 Climbing Atlanta Center
01:50PM 33.0964 -85.8414 357° North 178 205 20,200 960 Climbing Atlanta Center
01:51PM 33.1486 -85.8425 359° North 178 205 21,200 960 Climbing Atlanta Center
01:52PM 33.2008 -85.8411 North 178 205 22,200 900 Climbing Atlanta Center
01:53PM 33.2531 -85.8422 359° North 178 205 23,100 900 Climbing Atlanta Center
01:54PM 33.3072 -85.8408 North 178 205 24,000 840 Climbing Atlanta Center
01:55PM 33.3594 -85.8369 North 183 211 24,800 480 Climbing Atlanta Center
01:56PM 33.4139 -85.8331 North 183 211 25,000 60 Climbing Atlanta Center
01:57PM 33.4764 -85.8319 North 197 227 25,000  Level Atlanta Center
01:58PM 33.5411 -85.8283 North 214 246 25,000  Level Atlanta Center
01:59PM 33.6058 -85.8272 North 219 252 25,000  Level Atlanta Center
02:00PM 33.6728 -85.8211 North 233 268 25,000  Level Atlanta Center
02:01PM 33.7356 -85.8197 North 233 268 25,000  Level Atlanta Center
02:02PM 33.8022 -85.8189 North 233 268 25,000  Level Atlanta Center
02:03PM 33.8669 -85.8150 North 233 268 25,000  Level Atlanta Center
02:04PM 33.9297 -85.8139 North 233 268 25,000  Level Atlanta Center
02:05PM 33.9944 -85.8103 North 233 268 25,000  Level Atlanta Center
02:06PM 34.0550 -85.8114 359° North 233 268 25,000  Level Atlanta Center
02:07PM 34.1072 -85.8100 North 228 262 25,000  Level Atlanta Center
02:08PM 34.1822 -85.8092 North 236 272 25,000  Level Atlanta Center
02:09PM 34.2469 -85.8081 North 236 272 25,000  Level Atlanta Center
02:10PM 34.3097 -85.8042 North 230 265 25,000  Level Atlanta Center
02:11PM 34.3703 -85.8031 North 230 265 25,000  Level Atlanta Center
02:12PM 34.4328 -85.7992 North 225 259 25,000  Level Atlanta Center
02:13PM 34.4975 -85.7981 North 220 253 25,000  Level Atlanta Center
02:14PM 34.5603 -85.7944 North 220 253 25,000  Level Atlanta Center
02:15PM 34.6228 -85.7931 North 215 247 25,000  Level Atlanta Center
02:16PM 34.6856 -85.7894 North 215 247 25,000  Level Atlanta Center
02:17PM 34.7481 -85.7881 North 215 247 25,000  Level Atlanta Center
02:18PM 34.8086 -85.7844 North 215 247 25,000  Level Atlanta Center
02:19PM 34.8650 -85.7831 North 215 247 25,000  Level Atlanta Center
02:20PM 34.9256 -85.7817 North 215 247 25,000  Level Atlanta Center
02:21PM 34.9883 -85.7806 North 215 247 25,000  Level Atlanta Center
02:22PM 35.0531 -85.7794 North 215 247 25,000  Level Atlanta Center
02:23PM 35.1311 -85.7717 North 223 257 25,000  Level Memphis Center
02:24PM 35.1917 -85.7708 North 223 257 25,000  Level Memphis Center
02:25PM 35.2458 -85.7706 360° North 218 251 25,000  Level Memphis Center
02:26PM 35.3042 -85.7672 North 213 245 25,000 -300 Level Memphis Center
02:27PM 35.3667 -85.7639 North 213 245 24,500 -540 Descending Memphis Center
02:28PM 35.4314 -85.7656 359° North 224 258 24,000 -300 Descending Memphis Center
02:29PM 35.4981 -85.7642 North 230 265 24,000  Level Memphis Center
02:30PM 35.5583 -85.7608 North 230 265 24,000  Level Memphis Center
02:31PM 35.6208 -85.7600 North 230 265 24,000  Level Memphis Center
02:32PM 35.6833 -85.7539 North 230 265 24,000 -60 Level Memphis Center
02:33PM 35.7436 -85.7531 North 225 259 23,900 -300 Descending Memphis Center
02:34PM 35.8083 -85.7522 North 220 253 23,500 -360 Descending Memphis Center
02:35PM 35.8728 -85.7486 North 220 253 23,200 -300 Descending Memphis Center
02:36PM 35.9372 -85.7450 North 220 253 23,000 -120 Descending Memphis Center
02:37PM 35.9997 -85.7439 North 225 259 23,000  Level Memphis Center
02:38PM 36.0622 -85.7431 North 225 259 23,000  Level Memphis Center
02:39PM 36.1247 -85.7369 North 219 252 23,000  Level Memphis Center
02:40PM 36.1872 -85.7358 North 219 252 23,000  Level Memphis Center
02:41PM 36.2517 -85.7322 North 219 252 23,000  Level Memphis Center
02:42PM 36.3119 -85.7314 North 219 252 23,000  Level Memphis Center
02:43PM 36.3744 -85.7278 North 219 252 23,000  Level Memphis Center
02:44PM 36.4369 -85.7242 North 214 246 23,000  Level Memphis Center
02:45PM 36.4992 -85.7208 North 214 246 23,000 -120 Level Memphis Center
02:46PM 36.5578 -85.7225 359° North 214 246 22,800 -1,080 Descending Memphis Center
02:48PM 36.7353 -85.7100 North 266 306 19,400 -1,320 Descending Indianapolis Center
02:50PM 36.8156 -85.7092 360° North 259 298 18,300 -1,020 Descending Indianapolis Center
02:51PM 36.8844 -85.7100 359° North 248 285 17,400 -1,080 Descending Indianapolis Center
02:52PM 36.9558 -85.7072 North 252 290 16,100 -1,440 Descending Indianapolis Center
02:53PM 37.0272 -85.7036 North 256 295 14,500 -1,440 Descending Indianapolis Center
02:54PM 37.0989 -85.7033 360° North 256 295 13,200 -1,380 Descending Indianapolis Center
02:55PM 37.1686 -85.6994 North 251 289 11,700 -1,440 Descending Indianapolis Center
02:56PM 37.2394 -85.6986 North 254 292 10,300 -900 Descending Indianapolis Center
02:57PM 37.3156 -85.6953 North 241 277 9,900 -180 Descending Indianapolis Center
02:58PM 37.3775 -85.6914 North 225 259 10,000  Climbing Indianapolis Center
02:59PM 37.4381 -85.6867 North 220 253 9,900 -240 Descending Indianapolis Center
03:00PM 37.5000 -85.6819 North 222 255 9,600 -1,020 Descending Indianapolis Center
03:01PM 37.5669 -85.6789 North 239 275 7,800 -1,380 Descending Indianapolis Center
03:02PM 37.6381 -85.6747 North 254 292 6,800 -840 Descending Indianapolis Center
03:03PM 37.7142 -85.6606 North 236 272 6,100 -540 Descending Indianapolis Center
03:04PM 37.7756 -85.6478 North 228 262 5,700 -540 Descending Indianapolis Center
03:05PM 37.8347 -85.6333 11° North 223 257 5,100 -600 Descending Indianapolis Center
03:06PM 37.8928 -85.6214 North 218 251 4,500 -540 Descending Indianapolis Center
03:07PM 37.9503 -85.6097 North 214 246 4,000 -300 Descending Indianapolis Center
03:08PM 38.0061 -85.6000 North 210 242 4,000  Level Indianapolis Center
03:09PM 38.0697 -85.5858 10° North 203 234 4,000  Level Indianapolis Center
03:10PM 38.1231 -85.5736 10° North 202 232 4,000 -840 Level Indianapolis Center
03:13PM 38.2167 -85.6500 332° Northwest  Level FlightAware Approximate
03:13PM 38.2167 -85.6500 332° Northwest 105 121 700  Level Louisville TRACON
03:15PM 38.2280 -85.6637 332° Northwest  Level Estimated
03:22PM 38.2280 -85.6637 332° Northwest  Level Estimated